Terminal Aerodrome Forecast
Issued by NWS

Current Version | Previous Version | Graphics & Text | Print | Product List | Glossary On
Versions: 1 2 3 4 5 6 7 8 9 10 11 12 13 14 15 16 17 18 19 20 21 22
760
FTUS41 KRLX 141136
TAFCKB
TAF
KCKB 141136Z 1412/1512 00000KT 2SM BR SCT002
     FM141400 00000KT P6SM FEW050
     FM142000 21004KT P6SM FEW250
     FM150200 15003KT P6SM FEW250=

USA.gov is the U.S. government's official web portal to all federal, state and local government web resources and services.